Time;durP1;ratioP1;P1;durP2;ratioP2;P2;SDS_P1;SDS_P2;PMS_P1;PMS_P2;Temp;Humidity;BMP_temperature;BMP_pressure;BME280_temperature;BME280_humidity;BME280_pressure;Samples;Min_cycle;Max_cycle;Signal;HPM_P1;HPM_P2
2022/10/17 00:00:12;;;;;;;6.90;6.30;;;16.10;96.50;;;;;;5093691;28;20507;-72
2022/10/17 00:02:38;;;;;;;6.63;6.03;;;16.10;96.50;;;;;;5085827;28;20436;-71
2022/10/17 00:05:05;;;;;;;6.70;6.20;;;16.10;96.50;;;;;;5096379;28;20429;-72
2022/10/17 00:07:32;;;;;;;6.97;6.28;;;16.10;96.50;;;;;;5100788;28;20424;-72
2022/10/17 00:09:59;;;;;;;7.50;6.80;;;16.10;96.50;;;;;;5102907;28;20440;-71
2022/10/17 00:12:26;;;;;;;6.80;6.20;;;16.10;96.50;;;;;;5100905;28;20426;-73
2022/10/17 00:14:53;;;;;;;6.78;6.07;;;16.10;96.50;;;;;;5094481;28;20441;-73
2022/10/17 00:17:21;;;;;;;6.20;5.70;;;16.10;96.60;;;;;;5089518;28;20421;-72
2022/10/17 00:19:47;;;;;;;7.20;6.60;;;16.10;96.60;;;;;;5093448;28;20434;-72
2022/10/17 00:22:14;;;;;;;7.30;6.60;;;16.10;96.50;;;;;;5099624;28;20435;-71
2022/10/17 00:24:41;;;;;;;8.60;6.30;;;16.10;96.60;;;;;;5089888;28;20429;-71
2022/10/17 00:27:08;;;;;;;7.05;6.45;;;16.10;96.60;;;;;;5095921;28;20428;-72
2022/10/17 00:29:35;;;;;;;7.28;6.57;;;16.10;96.60;;;;;;5087856;28;20780;-72
2022/10/17 00:32:01;;;;;;;6.60;6.10;;;16.00;96.60;;;;;;5086140;28;20425;-72
2022/10/17 00:34:30;;;;;;;6.80;6.20;;;16.00;96.60;;;;;;5092760;28;20432;-72
2022/10/17 00:36:57;;;;;;;7.13;6.53;;;16.00;96.60;;;;;;5097398;28;20446;-72
2022/10/17 00:39:24;;;;;;;7.50;6.50;;;16.00;96.60;;;;;;5093161;28;20430;-73
2022/10/17 00:41:51;;;;;;;6.90;6.40;;;16.00;96.60;;;;;;5093648;28;20441;-71
2022/10/17 00:45:00;;;;;;;6.80;6.20;;;16.10;96.70;;;;;;5087635;28;20907;-71
2022/10/17 00:47:29;;;;;;;6.40;5.90;;;16.10;96.60;;;;;;5080757;28;20433;-72
2022/10/17 00:49:57;;;;;;;6.90;6.30;;;16.10;96.70;;;;;;5108147;28;20425;-70
2022/10/17 00:52:28;;;;;;;6.72;6.22;;;16.10;96.70;;;;;;5092092;28;20436;-72
2022/10/17 00:54:59;;;;;;;6.15;5.65;;;16.10;96.60;;;;;;5090020;28;20425;-71
2022/10/17 00:57:29;;;;;;;6.30;5.70;;;16.20;96.50;;;;;;5087027;28;20427;-70
2022/10/17 00:59:58;;;;;;;6.15;5.65;;;16.20;96.40;;;;;;5087085;28;20479;-71
2022/10/17 01:02:25;;;;;;;5.90;5.50;;;16.20;96.40;;;;;;5099279;22;21104;-68
2022/10/17 01:04:54;;;;;;;6.07;5.40;;;16.20;96.40;;;;;;5083823;28;20429;-69
2022/10/17 01:07:23;;;;;;;6.37;5.77;;;16.10;96.30;;;;;;5086663;28;20530;-71
2022/10/17 01:09:50;;;;;;;6.15;5.55;;;16.10;96.30;;;;;;5089687;28;20428;-68
2022/10/17 01:12:21;;;;;;;6.80;6.20;;;16.10;96.40;;;;;;5083701;28;20438;-69
2022/10/17 01:15:02;;;;;;;6.30;5.50;;;16.10;96.30;;;;;;5077155;28;20534;-67
2022/10/17 01:17:37;;;;;;;6.18;5.60;;;16.10;96.30;;;;;;5085556;28;20437;-68
2022/10/17 01:20:38;;;;;;;6.25;5.55;;;16.10;96.30;;;;;;5078241;28;20433;-67
2022/10/17 01:23:24;;;;;;;6.20;5.18;;;16.20;96.30;;;;;;5075954;28;20421;-68
2022/10/17 01:25:57;;;;;;;6.22;5.72;;;16.20;96.10;;;;;;5080968;28;20437;-70
2022/10/17 01:28:48;;;;;;;6.10;5.50;;;16.20;96.10;;;;;;5081567;28;20437;-68
2022/10/17 01:31:19;;;;;;;6.50;5.90;;;16.20;96.10;;;;;;5084928;28;20436;-68
2022/10/17 01:33:59;;;;;;;6.10;5.60;;;16.20;96.00;;;;;;5077854;28;20430;-67
2022/10/17 01:36:35;;;;;;;6.78;5.80;;;16.20;96.00;;;;;;5082068;28;20429;-70
2022/10/17 01:39:10;;;;;;;5.90;5.40;;;16.20;96.00;;;;;;5081007;28;20453;-71
2022/10/17 01:41:42;;;;;;;6.30;5.80;;;16.20;95.90;;;;;;5083960;28;20437;-68
2022/10/17 01:44:13;;;;;;;6.88;6.00;;;16.20;95.90;;;;;;5083889;28;20454;-69
2022/10/17 01:46:45;;;;;;;6.40;5.80;;;16.20;95.90;;;;;;5084856;28;20432;-69
2022/10/17 01:49:14;;;;;;;6.00;5.50;;;16.20;95.90;;;;;;5079059;28;20457;-68
2022/10/17 01:51:44;;;;;;;6.67;5.97;;;16.20;95.90;;;;;;5078408;28;20441;-68
2022/10/17 01:54:16;;;;;;;5.70;5.20;;;16.10;95.80;;;;;;5077465;28;20429;-68
2022/10/17 01:56:45;;;;;;;7.15;5.38;;;16.10;95.80;;;;;;5079981;28;20445;-68
2022/10/17 01:59:16;;;;;;;6.10;5.50;;;16.10;95.80;;;;;;5083570;28;20849;-68
2022/10/17 02:01:48;;;;;;;6.30;5.80;;;16.10;95.80;;;;;;5079426;28;20430;-69
2022/10/17 02:04:15;;;;;;;5.90;5.40;;;16.10;95.70;;;;;;5081918;28;20435;-69
2022/10/17 02:06:42;;;;;;;6.30;5.70;;;16.10;95.70;;;;;;5083569;28;20458;-69
2022/10/17 02:09:20;;;;;;;6.43;5.83;;;16.10;95.80;;;;;;5079488;28;20437;-69
2022/10/17 02:11:57;;;;;;;5.90;5.32;;;16.10;95.80;;;;;;5084804;28;20434;-68
2022/10/17 02:14:33;;;;;;;6.20;5.60;;;16.10;96.20;;;;;;5083618;28;20425;-68
2022/10/17 02:17:12;;;;;;;6.63;6.03;;;16.00;95.80;;;;;;5082203;28;20504;-69
2022/10/17 02:19:53;;;;;;;6.00;5.40;;;16.00;95.80;;;;;;5079996;28;20926;-69
2022/10/17 02:22:32;;;;;;;6.10;5.60;;;16.00;95.80;;;;;;5077949;28;20435;-68
2022/10/17 02:25:05;;;;;;;5.95;5.45;;;16.00;95.80;;;;;;5083130;28;20434;-69
2022/10/17 02:27:42;;;;;;;6.88;6.18;;;16.00;95.80;;;;;;5081520;28;20433;-69
2022/10/17 02:30:13;;;;;;;5.72;5.32;;;16.00;95.80;;;;;;5082447;28;20511;-70
2022/10/17 02:32:49;;;;;;;6.22;5.50;;;16.00;95.80;;;;;;5083636;28;20426;-69
2022/10/17 02:35:19;;;;;;;6.38;5.40;;;16.00;95.80;;;;;;5080491;28;20457;-68
2022/10/17 02:37:48;;;;;;;6.35;5.75;;;16.00;95.80;;;;;;5078840;28;20424;-68
2022/10/17 02:40:18;;;;;;;6.15;5.70;;;16.00;95.70;;;;;;5080886;28;20423;-69
2022/10/17 02:42:46;;;;;;;6.30;5.80;;;16.00;95.80;;;;;;5082403;28;20431;-67
2022/10/17 02:45:15;;;;;;;5.88;5.38;;;16.00;95.80;;;;;;5077509;28;20436;-67
2022/10/17 02:47:52;;;;;;;5.80;5.30;;;15.90;95.80;;;;;;5085042;28;20517;-68
2022/10/17 02:50:23;;;;;;;5.60;5.20;;;16.00;95.80;;;;;;5082861;28;20811;-68
2022/10/17 02:52:55;;;;;;;5.28;4.88;;;16.00;95.60;;;;;;5076778;28;20427;-68
2022/10/17 02:55:28;;;;;;;9.25;5.57;;;16.00;96.00;;;;;;5085062;28;20440;-68
2022/10/17 02:57:59;;;;;;;5.80;5.30;;;16.00;95.60;;;;;;5080430;28;20421;-67
2022/10/17 03:00:27;;;;;;;5.90;5.30;;;16.00;95.60;;;;;;5085629;28;20430;-68
2022/10/17 03:02:55;;;;;;;5.85;5.35;;;16.00;95.50;;;;;;5086657;28;20434;-68
2022/10/17 03:05:24;;;;;;;5.93;5.53;;;16.00;95.40;;;;;;5079869;28;20926;-67
2022/10/17 03:07:52;;;;;;;6.07;5.30;;;16.00;95.30;;;;;;5088437;28;20434;-73
2022/10/17 03:10:19;;;;;;;6.03;5.43;;;16.10;95.20;;;;;;5085509;28;20435;-68
2022/10/17 03:12:46;;;;;;;5.90;5.30;;;16.10;95.30;;;;;;5086523;28;20983;-68
2022/10/17 03:15:13;;;;;;;7.97;5.60;;;16.00;95.20;;;;;;5088529;28;20432;-68
2022/10/17 03:17:40;;;;;;;5.45;4.95;;;16.10;95.20;;;;;;5086986;28;20421;-69
2022/10/17 03:20:09;;;;;;;5.70;5.20;;;16.00;95.10;;;;;;5083535;28;20921;-67
2022/10/17 03:22:36;;;;;;;5.60;5.10;;;16.10;95.10;;;;;;5087101;28;20429;-68
2022/10/17 03:25:03;;;;;;;6.40;5.30;;;16.10;95.10;;;;;;5083952;28;20513;-69
2022/10/17 03:27:30;;;;;;;5.87;5.37;;;16.00;95.10;;;;;;5079708;28;20458;-68
2022/10/17 03:29:57;;;;;;;5.50;5.00;;;16.00;95.40;;;;;;5081876;28;20911;-69
2022/10/17 03:32:23;;;;;;;5.10;4.70;;;16.10;95.00;;;;;;5086152;28;20426;-69
2022/10/17 03:34:50;;;;;;;5.85;5.35;;;16.10;94.90;;;;;;5083212;28;20607;-68
2022/10/17 03:37:18;;;;;;;5.90;5.40;;;16.10;94.90;;;;;;5082980;28;20946;-69
2022/10/17 03:39:45;;;;;;;5.40;5.00;;;16.10;94.90;;;;;;5085502;28;20445;-69
2022/10/17 03:42:12;;;;;;;5.30;4.90;;;16.10;95.00;;;;;;5084675;28;20427;-72
2022/10/17 03:44:38;;;;;;;5.93;5.35;;;16.10;95.00;;;;;;5082531;28;20440;-69
2022/10/17 03:47:05;;;;;;;5.68;5.20;;;16.00;95.00;;;;;;5078785;28;20887;-68
2022/10/17 03:49:32;;;;;;;5.45;5.05;;;16.00;95.00;;;;;;5084525;28;21180;-68
2022/10/17 03:51:59;;;;;;;6.13;5.30;;;16.10;94.90;;;;;;5085949;28;20430;-69
2022/10/17 03:54:27;;;;;;;6.20;5.60;;;16.00;94.80;;;;;;5086273;28;20433;-68
2022/10/17 03:56:54;;;;;;;5.47;4.97;;;16.00;94.80;;;;;;5086341;28;20911;-68
2022/10/17 03:59:21;;;;;;;5.28;4.88;;;16.10;94.90;;;;;;5081573;28;20441;-68
2022/10/17 04:01:47;;;;;;;5.30;4.90;;;16.10;94.80;;;;;;5082168;28;20421;-71
2022/10/17 04:04:14;;;;;;;5.43;4.93;;;16.10;94.80;;;;;;5083715;28;20435;-68
2022/10/17 04:06:41;;;;;;;5.47;5.07;;;16.10;94.70;;;;;;5079606;28;20983;-68
2022/10/17 04:09:10;;;;;;;5.50;5.00;;;16.10;94.60;;;;;;5051533;28;20534;-68
2022/10/17 04:11:38;;;;;;;5.57;4.93;;;16.10;94.50;;;;;;5085965;28;20410;-68
2022/10/17 04:14:05;;;;;;;7.10;4.75;;;16.10;94.50;;;;;;5085199;28;20437;-68
2022/10/17 04:16:32;;;;;;;5.82;5.20;;;16.10;94.40;;;;;;5086746;28;20432;-68
2022/10/17 04:19:00;;;;;;;5.72;5.22;;;16.10;94.40;;;;;;5088453;28;20414;-68
2022/10/17 04:21:28;;;;;;;5.60;4.97;;;16.10;94.30;;;;;;5080546;28;20430;-69
2022/10/17 04:23:55;;;;;;;5.65;5.00;;;16.20;94.30;;;;;;5081468;28;20429;-68
2022/10/17 04:26:23;;;;;;;6.75;5.50;;;16.20;94.20;;;;;;5082209;28;20440;-67
2022/10/17 04:28:51;;;;;;;7.00;5.05;;;16.10;94.10;;;;;;5084457;28;20438;-68
2022/10/17 04:31:18;;;;;;;6.70;5.00;;;16.10;94.10;;;;;;5086132;28;20482;-69
2022/10/17 04:33:47;;;;;;;5.40;5.00;;;16.10;94.10;;;;;;5079523;28;20431;-68
2022/10/17 04:36:15;;;;;;;5.50;5.00;;;16.20;94.00;;;;;;5082135;28;20434;-68
2022/10/17 04:38:42;;;;;;;5.88;4.97;;;16.20;93.90;;;;;;5086066;28;20430;-67
2022/10/17 04:41:12;;;;;;;5.40;4.90;;;16.20;94.20;;;;;;5082157;28;20418;-67
2022/10/17 04:43:39;;;;;;;4.80;4.40;;;16.20;93.80;;;;;;5078905;28;20414;-68
2022/10/17 04:46:09;;;;;;;5.20;4.70;;;16.20;93.70;;;;;;5087634;28;20430;-69
2022/10/17 04:48:36;;;;;;;5.60;5.20;;;16.20;93.70;;;;;;5081662;28;20422;-67
2022/10/17 04:51:05;;;;;;;5.95;5.38;;;16.20;93.70;;;;;;5078781;28;20462;-69
2022/10/17 04:53:34;;;;;;;5.50;5.00;;;16.20;93.70;;;;;;5079448;28;20431;-69
2022/10/17 04:56:01;;;;;;;5.10;4.70;;;16.20;93.70;;;;;;5082970;28;20425;-69
2022/10/17 04:58:29;;;;;;;6.05;5.00;;;16.20;93.70;;;;;;5086957;28;20421;-68
2022/10/17 05:00:56;;;;;;;5.20;4.70;;;16.20;93.60;;;;;;5087142;28;20410;-69
2022/10/17 05:03:25;;;;;;;5.22;4.80;;;16.20;93.60;;;;;;5086507;28;20422;-70
2022/10/17 05:05:51;;;;;;;6.50;5.85;;;16.20;93.60;;;;;;5084325;28;20432;-70
2022/10/17 05:08:18;;;;;;;7.32;5.63;;;16.20;93.50;;;;;;5077272;28;20454;-67
2022/10/17 05:27:37;;;;;;;5.30;4.63;;;16.30;93.20;;;;;;5078901;28;20424;-68
2022/10/17 05:30:05;;;;;;;6.88;5.20;;;16.30;93.10;;;;;;5074998;28;20454;-67
2022/10/17 05:32:32;;;;;;;5.90;4.77;;;16.30;93.00;;;;;;5081381;28;20756;-69
2022/10/17 05:34:58;;;;;;;5.78;4.90;;;16.30;92.90;;;;;;5083322;28;20426;-67
2022/10/17 05:37:25;;;;;;;5.33;4.70;;;16.30;92.90;;;;;;5076255;28;20581;-67
2022/10/17 05:39:52;;;;;;;6.32;5.75;;;16.30;92.90;;;;;;5076624;28;20955;-67
2022/10/17 05:42:19;;;;;;;5.10;4.70;;;16.30;92.90;;;;;;5082511;28;20437;-70
2022/10/17 05:44:47;;;;;;;6.43;5.20;;;16.30;92.80;;;;;;5083199;28;20899;-68
2022/10/17 05:47:14;;;;;;;6.90;5.10;;;16.30;92.90;;;;;;5085985;28;20441;-68
2022/10/17 05:49:41;;;;;;;5.18;4.70;;;16.30;92.80;;;;;;5078612;28;20802;-68
2022/10/17 05:52:08;;;;;;;5.30;4.80;;;16.30;92.90;;;;;;5086869;28;20417;-70
2022/10/17 05:54:34;;;;;;;6.30;5.07;;;16.20;92.80;;;;;;5086756;28;20429;-67
2022/10/17 05:57:01;;;;;;;6.07;4.90;;;16.20;92.80;;;;;;5086993;28;20431;-67
2022/10/17 05:59:28;;;;;;;5.57;5.03;;;16.30;92.70;;;;;;5081002;28;20423;-68
2022/10/17 06:01:56;;;;;;;5.05;4.65;;;16.30;92.80;;;;;;5081003;28;20812;-64
2022/10/17 06:04:22;;;;;;;6.50;5.05;;;16.30;92.70;;;;;;5084356;28;20430;-64
2022/10/17 06:06:49;;;;;;;5.18;4.68;;;16.30;92.50;;;;;;5077702;28;20444;-63
2022/10/17 06:09:16;;;;;;;5.45;4.80;;;16.40;92.50;;;;;;5083926;28;20421;-64
2022/10/17 06:11:43;;;;;;;5.78;5.25;;;16.40;92.40;;;;;;5086591;28;20809;-63
2022/10/17 06:14:10;;;;;;;6.45;4.75;;;16.40;92.30;;;;;;5081554;28;20427;-63
2022/10/17 06:16:37;;;;;;;6.63;4.50;;;16.40;92.20;;;;;;5073464;28;20417;-63
2022/10/17 06:19:05;;;;;;;7.68;5.32;;;16.40;92.10;;;;;;5083340;28;20439;-63
2022/10/17 06:21:35;;;;;;;5.73;5.10;;;16.40;92.10;;;;;;5077485;28;20441;-66
2022/10/17 06:24:02;;;;;;;7.78;4.90;;;16.50;91.90;;;;;;5079836;28;20903;-67
2022/10/17 06:26:29;;;;;;;6.30;4.97;;;16.50;91.90;;;;;;5078955;28;20413;-67
2022/10/17 06:28:55;;;;;;;6.20;4.88;;;16.60;91.80;;;;;;5077860;28;20431;-66
2022/10/17 06:31:22;;;;;;;5.78;5.25;;;16.60;91.70;;;;;;5078192;28;20422;-68
2022/10/17 06:33:49;;;;;;;7.70;4.95;;;16.60;91.50;;;;;;5086270;28;20436;-67
2022/10/17 06:36:17;;;;;;;9.45;5.30;;;16.70;91.40;;;;;;5087021;28;20448;-68
2022/10/17 06:38:44;;;;;;;6.43;4.97;;;16.70;91.20;;;;;;5091096;28;20500;-68
2022/10/17 06:41:13;;;;;;;6.88;4.95;;;16.80;91.10;;;;;;5085193;28;21184;-69
2022/10/17 06:43:42;;;;;;;10.27;5.30;;;16.80;91.00;;;;;;5079012;28;20484;-68
2022/10/17 06:46:09;;;;;;;5.53;5.00;;;16.80;90.90;;;;;;5082572;28;20959;-67
2022/10/17 06:48:35;;;;;;;7.30;4.93;;;16.90;90.80;;;;;;5086803;28;20426;-68
2022/10/17 06:51:04;;;;;;;6.03;4.90;;;16.90;90.70;;;;;;5081333;28;20941;-68
2022/10/17 06:53:34;;;;;;;7.68;5.30;;;16.90;90.70;;;;;;5086589;28;20426;-68
2022/10/17 06:56:02;;;;;;;7.15;5.05;;;16.90;90.50;;;;;;5090363;28;20418;-68
2022/10/17 06:58:29;;;;;;;7.35;4.90;;;16.90;90.50;;;;;;5086451;28;20430;-68
2022/10/17 07:00:59;;;;;;;5.50;4.50;;;17.00;90.50;;;;;;5085348;28;20425;-68
2022/10/17 07:03:26;;;;;;;5.30;4.80;;;17.10;90.30;;;;;;5085481;28;20463;-68
2022/10/17 07:05:53;;;;;;;5.35;4.70;;;17.10;90.20;;;;;;5076817;28;20419;-69
2022/10/17 07:08:19;;;;;;;7.03;4.68;;;17.20;89.90;;;;;;5089433;28;20426;-68
2022/10/17 07:10:48;;;;;;;6.03;4.63;;;17.20;89.80;;;;;;5084670;28;20436;-68
2022/10/17 07:13:15;;;;;;;5.72;4.57;;;17.20;89.60;;;;;;5083907;28;20431;-69
2022/10/17 07:15:41;;;;;;;6.47;4.50;;;17.30;89.40;;;;;;5077966;28;20416;-71
2022/10/17 07:18:09;;;;;;;6.13;4.40;;;17.40;89.30;;;;;;5081670;28;20425;-68
2022/10/17 07:20:35;;;;;;;5.47;4.20;;;17.40;88.20;;;;;;5089402;28;20958;-68
2022/10/17 07:23:02;;;;;;;5.25;4.30;;;17.50;87.90;;;;;;5089369;28;20823;-69
2022/10/17 07:25:29;;;;;;;8.48;4.60;;;17.60;88.10;;;;;;5089246;28;20433;-67
2022/10/17 07:27:57;;;;;;;4.97;4.10;;;17.60;87.50;;;;;;5086570;28;20430;-67
2022/10/17 07:30:24;;;;;;;5.82;4.10;;;17.70;86.70;;;;;;5084772;28;20452;-68
2022/10/17 07:32:53;;;;;;;6.80;4.22;;;17.80;86.40;;;;;;5082638;28;20429;-69
2022/10/17 07:35:20;;;;;;;6.50;4.10;;;17.90;86.10;;;;;;5079642;28;20429;-69
2022/10/17 07:37:47;;;;;;;5.45;4.43;;;17.90;85.80;;;;;;5080154;28;20437;-67
2022/10/17 07:40:14;;;;;;;5.05;4.20;;;17.90;85.80;;;;;;5084661;28;20430;-67
2022/10/17 07:42:40;;;;;;;4.88;4.35;;;17.90;85.70;;;;;;5079967;28;20431;-69
2022/10/17 07:45:09;;;;;;;5.00;4.50;;;17.90;85.90;;;;;;5082257;28;21245;-68
2022/10/17 07:47:36;;;;;;;4.82;4.05;;;18.00;85.20;;;;;;5084662;28;20434;-66
2022/10/17 07:50:04;;;;;;;4.47;4.07;;;18.10;84.60;;;;;;5084527;28;20839;-67
2022/10/17 07:52:31;;;;;;;4.38;3.97;;;18.30;84.20;;;;;;5094250;22;20436;-70
2022/10/17 07:54:57;;;;;;;5.63;4.00;;;18.40;83.70;;;;;;5088239;28;20422;-71
2022/10/17 07:57:24;;;;;;;5.50;3.63;;;18.50;83.20;;;;;;5080713;28;20432;-72
2022/10/17 07:59:53;;;;;;;4.20;3.80;;;18.70;82.20;;;;;;5089265;28;20516;-71
2022/10/17 08:02:23;;;;;;;4.63;3.50;;;18.70;81.60;;;;;;5097768;28;20947;-71
2022/10/17 08:04:50;;;;;;;4.72;3.88;;;18.90;81.20;;;;;;5098701;28;20418;-70
2022/10/17 08:07:17;;;;;;;4.63;3.85;;;18.90;80.50;;;;;;5108557;28;20436;-73
2022/10/17 08:09:44;;;;;;;7.23;3.90;;;19.00;79.80;;;;;;5101423;28;20429;-71
2022/10/17 08:12:10;;;;;;;7.10;4.30;;;19.00;79.60;;;;;;5091757;28;20421;-72
2022/10/17 08:14:38;;;;;;;5.72;3.70;;;19.10;79.30;;;;;;5091320;28;20418;-71
2022/10/17 08:17:05;;;;;;;4.40;3.83;;;19.20;79.10;;;;;;5093013;28;20456;-70
2022/10/17 08:19:33;;;;;;;4.95;3.47;;;19.40;78.30;;;;;;5098828;28;20425;-69
2022/10/17 08:22:01;;;;;;;5.68;4.03;;;19.50;77.80;;;;;;5089082;28;20907;-71
2022/10/17 08:24:27;;;;;;;4.15;3.75;;;19.50;77.40;;;;;;5091721;28;20479;-71
2022/10/17 08:26:56;;;;;;;4.80;3.75;;;19.50;77.10;;;;;;5088835;28;20425;-71
2022/10/17 08:29:23;;;;;;;7.97;4.00;;;19.50;77.40;;;;;;5088835;28;20876;-71
2022/10/17 08:31:49;;;;;;;4.90;3.60;;;19.50;77.50;;;;;;5087830;28;20422;-71
2022/10/17 08:34:16;;;;;;;6.50;3.75;;;19.40;78.30;;;;;;5086901;28;20437;-72
2022/10/17 08:36:44;;;;;;;8.87;4.20;;;19.30;78.40;;;;;;5089266;28;20410;-70
2022/10/17 08:39:11;;;;;;;5.38;3.50;;;19.20;78.20;;;;;;5082610;28;20782;-71
2022/10/17 08:41:51;;;;;;;4.70;3.72;;;19.30;79.70;;;;;;5085681;28;20440;-70
2022/10/17 08:44:28;;;;;;;5.47;4.53;;;19.30;78.30;;;;;;5084401;28;20418;-70
2022/10/17 08:46:58;;;;;;;3.70;3.40;;;19.40;78.10;;;;;;5087108;28;20417;-73
2022/10/17 08:49:37;;;;;;;6.03;3.63;;;19.40;78.10;;;;;;5087102;28;20449;-70
2022/10/17 08:52:11;;;;;;;5.15;3.40;;;19.40;77.90;;;;;;5086627;28;20445;-71
2022/10/17 08:54:41;;;;;;;3.85;2.90;;;19.40;78.10;;;;;;5092509;28;20430;-71
2022/10/17 08:57:13;;;;;;;4.95;3.35;;;19.40;78.40;;;;;;5088535;28;20418;-70
2022/10/17 08:59:39;;;;;;;5.00;3.30;;;19.40;78.50;;;;;;5087772;28;20447;-71
2022/10/17 09:02:34;;;;;;;6.00;4.93;;;19.60;77.40;;;;;;5086293;28;20796;-72
2022/10/17 09:05:24;;;;;;;5.07;3.30;;;19.70;78.00;;;;;;5080259;28;20418;-72
2022/10/17 09:07:59;;;;;;;4.80;3.70;;;19.80;76.80;;;;;;5103658;28;20436;-72
2022/10/17 09:10:37;;;;;;;4.60;3.50;;;19.90;76.20;;;;;;5103476;28;20430;-71
2022/10/17 09:13:16;;;;;;;5.50;3.67;;;20.00;75.30;;;;;;5112665;28;21140;-72
2022/10/17 09:16:06;;;;;;;6.05;3.47;;;19.90;75.50;;;;;;5088488;28;20427;-71
2022/10/17 09:18:36;;;;;;;4.53;3.60;;;19.80;76.00;;;;;;5088283;28;20847;-71
2022/10/17 09:21:15;;;;;;;4.15;3.05;;;19.70;76.60;;;;;;5087013;28;20436;-70
2022/10/17 09:23:48;;;;;;;4.20;3.80;;;19.70;77.30;;;;;;5089938;28;20401;-71
2022/10/17 09:26:15;;;;;;;3.70;3.40;;;19.70;77.00;;;;;;5089324;28;20442;-72
2022/10/17 09:28:43;;;;;;;5.97;3.53;;;19.80;76.90;;;;;;5088862;28;20433;-71
2022/10/17 09:31:16;;;;;;;4.78;3.58;;;19.80;77.00;;;;;;5084965;28;20437;-71
2022/10/17 09:33:46;;;;;;;5.22;3.63;;;19.80;76.70;;;;;;5087760;28;20883;-70
2022/10/17 09:36:16;;;;;;;4.80;3.70;;;19.90;76.70;;;;;;5082444;28;20452;-73
2022/10/17 09:38:48;;;;;;;5.65;3.33;;;19.90;76.40;;;;;;5091652;28;20413;-70
2022/10/17 09:41:19;;;;;;;7.30;3.70;;;19.80;76.70;;;;;;5082651;28;21128;-73
2022/10/17 09:43:46;;;;;;;3.67;3.38;;;19.80;76.80;;;;;;5090798;28;20418;-73
2022/10/17 09:46:20;;;;;;;6.23;3.60;;;19.80;77.20;;;;;;5088372;28;20515;-72
2022/10/17 09:48:53;;;;;;;5.13;3.60;;;19.80;77.20;;;;;;5082703;28;20422;-71
2022/10/17 09:51:20;;;;;;;5.53;4.05;;;19.80;77.20;;;;;;5088678;28;20422;-72
2022/10/17 09:53:54;;;;;;;5.50;3.20;;;19.80;77.60;;;;;;5087871;28;21067;-72
2022/10/17 09:56:20;;;;;;;5.97;3.85;;;19.70;77.60;;;;;;5084016;28;20442;-71
2022/10/17 09:58:49;;;;;;;3.90;3.50;;;19.70;77.80;;;;;;5086251;28;20433;-74
2022/10/17 10:01:19;;;;;;;5.90;3.45;;;19.80;78.00;;;;;;5087710;28;20438;-70
2022/10/17 10:03:46;;;;;;;4.70;3.60;;;19.90;77.80;;;;;;5084195;28;20807;-72
2022/10/17 10:06:15;;;;;;;3.83;3.42;;;20.10;76.90;;;;;;5076184;28;20435;-70
2022/10/17 10:08:54;;;;;;;4.75;3.40;;;20.20;76.40;;;;;;5085869;28;20506;-73
2022/10/17 10:11:24;;;;;;;3.92;3.50;;;20.30;76.20;;;;;;5090361;28;20430;-71
2022/10/17 10:13:51;;;;;;;5.15;3.60;;;20.60;74.90;;;;;;5106375;28;20405;-70
2022/10/17 10:16:23;;;;;;;3.97;3.30;;;20.80;74.20;;;;;;5107411;28;20427;-70
2022/10/17 10:18:50;;;;;;;3.28;2.97;;;21.00;73.10;;;;;;5105835;28;20426;-70
2022/10/17 10:21:20;;;;;;;4.57;3.10;;;21.20;72.60;;;;;;5111800;28;20422;-71
2022/10/17 10:24:05;;;;;;;6.57;3.30;;;21.40;72.30;;;;;;5110101;28;20409;-72
2022/10/17 10:26:39;;;;;;;4.30;3.20;;;21.70;71.20;;;;;;5112673;28;20417;-70
2022/10/17 10:29:19;;;;;;;4.80;3.13;;;21.70;70.50;;;;;;5117596;28;20432;-72
2022/10/17 10:31:47;;;;;;;3.60;3.30;;;21.60;70.50;;;;;;5103120;28;20431;-71
2022/10/17 10:34:20;;;;;;;4.70;3.20;;;21.30;71.50;;;;;;5109125;28;20406;-73
2022/10/17 10:36:51;;;;;;;3.53;3.00;;;21.20;72.30;;;;;;5111441;28;20434;-71
2022/10/17 10:39:35;;;;;;;4.82;3.40;;;21.10;72.80;;;;;;5112337;28;20402;-71
2022/10/17 10:42:03;;;;;;;5.07;2.97;;;21.10;73.10;;;;;;5095450;28;20437;-71
2022/10/17 10:44:32;;;;;;;3.90;3.20;;;21.00;72.90;;;;;;5101299;28;20431;-71
2022/10/17 10:47:20;;;;;;;5.00;3.60;;;20.90;73.30;;;;;;5092665;28;20428;-72
2022/10/17 10:49:50;;;;;;;4.10;3.70;;;20.90;73.90;;;;;;5102933;28;20429;-70
2022/10/17 10:52:29;;;;;;;5.57;3.20;;;20.80;73.90;;;;;;5106970;28;20422;-71
2022/10/17 10:55:04;;;;;;;4.93;3.30;;;20.80;74.30;;;;;;5103490;28;20433;-71
2022/10/17 10:57:34;;;;;;;3.70;3.40;;;20.70;74.80;;;;;;5105667;28;20497;-69
2022/10/17 11:00:08;;;;;;;3.90;3.55;;;20.70;75.10;;;;;;5107944;28;20513;-71
2022/10/17 11:02:42;;;;;;;5.22;3.35;;;20.70;75.10;;;;;;5098398;28;20417;-73
2022/10/17 11:05:15;;;;;;;3.92;3.30;;;20.80;74.90;;;;;;5089419;28;20441;-72
2022/10/17 11:07:51;;;;;;;4.47;3.33;;;20.80;74.60;;;;;;5092165;28;20583;-72
2022/10/17 11:10:25;;;;;;;4.25;3.75;;;20.90;74.80;;;;;;5081540;28;20465;-72
2022/10/17 11:12:56;;;;;;;3.92;3.40;;;20.90;74.50;;;;;;5089889;28;20429;-72
2022/10/17 11:15:27;;;;;;;4.50;3.63;;;20.80;74.90;;;;;;5091869;28;20432;-73
2022/10/17 11:17:59;;;;;;;4.93;4.00;;;20.80;74.80;;;;;;5092018;28;20920;-71
2022/10/17 11:20:34;;;;;;;4.40;3.50;;;20.70;74.60;;;;;;5091663;28;20428;-72
2022/10/17 11:23:12;;;;;;;5.20;3.40;;;20.70;75.00;;;;;;5092517;28;20414;-72
2022/10/17 11:25:41;;;;;;;6.03;3.88;;;20.60;75.10;;;;;;5086444;28;21112;-72
2022/10/17 11:28:14;;;;;;;5.07;3.80;;;20.60;75.60;;;;;;5091246;28;20414;-72
2022/10/17 11:30:48;;;;;;;5.13;4.20;;;20.70;75.60;;;;;;5086569;28;20433;-73
2022/10/17 11:33:21;;;;;;;5.55;3.88;;;20.70;75.30;;;;;;5087200;28;20433;-73
2022/10/17 11:35:51;;;;;;;5.47;3.73;;;20.70;75.50;;;;;;5091550;28;20418;-72
2022/10/17 11:38:22;;;;;;;5.13;3.60;;;20.70;75.30;;;;;;5089354;28;20429;-71
2022/10/17 11:40:52;;;;;;;4.78;3.70;;;20.70;75.50;;;;;;5088217;28;20430;-72
2022/10/17 11:43:22;;;;;;;4.15;3.58;;;20.80;75.90;;;;;;5089329;28;20438;-73
2022/10/17 11:45:55;;;;;;;4.40;3.30;;;20.80;75.80;;;;;;5091660;28;20421;-73
2022/10/17 11:48:26;;;;;;;3.95;3.30;;;20.80;76.00;;;;;;5090619;28;20418;-72
2022/10/17 11:51:01;;;;;;;5.80;3.70;;;20.80;75.70;;;;;;5086388;28;20422;-73
2022/10/17 11:53:43;;;;;;;4.10;3.70;;;20.80;75.80;;;;;;5089458;28;20817;-75
2022/10/17 11:56:15;;;;;;;4.77;3.70;;;20.80;76.00;;;;;;5095427;28;20439;-72
2022/10/17 11:58:50;;;;;;;4.10;3.70;;;20.80;75.90;;;;;;5093203;28;20815;-73
2022/10/17 12:01:24;;;;;;;5.45;3.72;;;20.80;75.70;;;;;;5089318;28;20412;-73
2022/10/17 12:04:03;;;;;;;5.05;3.88;;;20.90;75.90;;;;;;5083091;28;20815;-72
2022/10/17 12:06:46;;;;;;;4.45;3.42;;;20.90;75.50;;;;;;5089650;28;20476;-71
2022/10/17 12:09:20;;;;;;;5.00;3.60;;;21.00;74.80;;;;;;5086115;28;20417;-71
2022/10/17 12:11:52;;;;;;;4.00;3.53;;;21.00;74.50;;;;;;5090165;28;20910;-73
2022/10/17 12:14:40;;;;;;;4.95;3.72;;;21.00;75.20;;;;;;5089101;28;20429;-73
2022/10/17 12:17:33;;;;;;;4.15;3.75;;;21.10;74.50;;;;;;5089320;28;20445;-72
2022/10/17 12:20:27;;;;;;;4.80;3.25;;;21.20;73.80;;;;;;5079084;28;20852;-72
2022/10/17 12:22:56;;;;;;;3.58;3.28;;;21.20;72.70;;;;;;5082005;28;20437;-71
2022/10/17 12:25:28;;;;;;;6.35;3.00;;;21.20;72.70;;;;;;5086712;28;21085;-65
2022/10/17 12:28:12;;;;;;;4.93;3.70;;;21.20;72.40;;;;;;5089660;28;20471;-65
2022/10/17 12:30:50;;;;;;;3.60;3.30;;;21.30;72.90;;;;;;5079590;28;20421;-65
2022/10/17 12:33:21;;;;;;;4.50;3.50;;;21.30;70.70;;;;;;5087227;28;20448;-66
2022/10/17 12:35:49;;;;;;;4.90;3.42;;;21.40;71.30;;;;;;5094214;28;20445;-73
2022/10/17 12:38:25;;;;;;;3.93;3.07;;;21.30;71.50;;;;;;5114445;28;20413;-72
2022/10/17 12:41:04;;;;;;;6.03;5.00;;;21.30;71.60;;;;;;5114151;28;20414;-72
2022/10/17 12:43:49;;;;;;;4.32;3.63;;;21.30;71.50;;;;;;5113098;28;20532;-71
2022/10/17 12:46:53;;;;;;;4.95;2.95;;;21.30;71.70;;;;;;5105364;28;20421;-72
2022/10/17 12:49:40;;;;;;;4.38;2.83;;;21.30;71.70;;;;;;5088148;28;20501;-70
2022/10/17 12:52:19;;;;;;;5.20;3.50;;;21.30;72.00;;;;;;5098722;28;20425;-71
2022/10/17 12:54:51;;;;;;;3.22;2.60;;;21.30;72.50;;;;;;5103017;28;20422;-72
2022/10/17 12:57:24;;;;;;;5.60;3.60;;;21.20;72.10;;;;;;5103586;28;20414;-71
2022/10/17 12:59:53;;;;;;;4.00;2.97;;;21.30;71.90;;;;;;5091344;28;20901;-71
2022/10/17 13:02:25;;;;;;;3.55;3.00;;;21.40;71.50;;;;;;5091908;28;20931;-72
2022/10/17 13:04:58;;;;;;;3.70;2.90;;;21.40;71.70;;;;;;5090320;28;20421;-72
2022/10/17 13:07:25;;;;;;;5.93;3.55;;;21.40;72.10;;;;;;5093422;28;20426;-71
2022/10/17 13:09:52;;;;;;;4.07;3.28;;;21.30;71.70;;;;;;5104497;28;20440;-72
2022/10/17 13:12:25;;;;;;;4.70;3.67;;;21.30;71.80;;;;;;5109950;28;20799;-70
2022/10/17 13:14:55;;;;;;;4.30;3.28;;;21.30;72.10;;;;;;5112364;28;20432;-70
2022/10/17 13:17:24;;;;;;;4.93;3.47;;;21.30;72.20;;;;;;5110930;28;20447;-72
2022/10/17 13:19:51;;;;;;;6.28;2.80;;;21.30;72.60;;;;;;5115146;28;20460;-71
2022/10/17 13:22:20;;;;;;;4.60;3.10;;;21.40;71.60;;;;;;5115528;28;20428;-70